Pawnee, TX (78145)

3:49 PM CDT on August 30, 2015 (GMT -0500)
South Karnes - LOR | | Change Station
CLOSE
Current Station
Personal Weather Station
Location: Beeville, TX
Elevation: 338 ft
Nearby Weather Stations

Elev 338 ft 28.70 °N, 97.75 °W | Updated 30 seconds ago

Partly Cloudy
Partly Cloudy
94.3 °F
Feels Like 95 °F
N
2.0
Wind Variable Wind from NNE
Gusts 2.5 mph

Today
High -- | Low -- °F
--% Chance of Precip.
Yesterday
High -- | Low -- °F
Precip. -- in
7:08 AM 7:55 PM
Full, 98% visible
Pressure 29.95 in
Visibility 10.0 miles
Clouds Scattered Clouds 8000 ft
Heat Index 95 °F
Dew Point 61 °F
Humidity 33%
Rainfall 0.00 in
Snow Depth Not available.
UV 3.0 out of 12
Pollen 8.10 out of 12
Air Quality Not available.
Flu Activity Not available.
METAR KBEA 302035Z AUTO 00000KT 10SM SCT080 34/18 A2995 RMK AO2 T03420180
Pressure 29.95 in
Visibility 10.0 miles
Clouds Scattered Clouds 8000 ft
Heat Index 95 °F
Dew Point 61 °F
Humidity 33%
Rainfall 0.00 in
Snow Depth Not available.
UV 3.0 out of 12
Pollen 8.10 out of 12
Air Quality Not available.
Flu Activity Not available.
METAR KBEA 302035Z AUTO 00000KT 10SM SCT080 34/18 A2995 RMK AO2 T03420180

10-Day Weather Forecast

×

Almanac

Astronomy

Aug. 30, 2015 Rise Set
Actual Time
Civil Twilight
Nautical Twilight
Astronomical Twilight
Moon
Length of Visible Light
Length of Day
Tomorrow will be .
, % of the Moon is Illuminated

Today's Extremes

State Highs State Lows

Community

WunderPhotos

Upload Photos

1,851,057 photos uploaded!

WunderBlogs® & News

Nearby

Air Quality

  Air Quality AQ Index Pollutant
Not available.

Snow Depth

Station Depth Elevation

Earthquake Activity

City Distance Mag. Time & Date
Minimum magnitude displayed is 2.5.

Coastal Water Temperatures

Place Temperature

Stations

Nearby Weather Stations

Station Location Temp. Windchill Dew Point Humidity Wind Precip. Elev Updated Type